The Pas, Canada
Current Conditions -  °F | °C
As of 6:00 PM on Friday 24 Oct 2014 (Local Time) from CYQD Reporting Station
Overcast Overcast  
Wind Chill: 40°   Ceiling: 1500
Heat Index: 46°   Visibility: 15mi
Dew Point: 36°   Wind: 15mph
Humidity: 66%   Direction: 290°WNW
Pressure: 29.58"   Gusts: 24mph
Location:  53.81°N, 101.25°W
Report Text: CYQD 242300Z 29013G21KT 15SM OVC015 08/02 A2958 RMK SC8 SLP027
Loading
Personal Weather Stations






























Interactive Weather Map
Tropical Storm Tracking
New forecast layout! Learn more

10-Day Weather Forecast

Advertisements
Track Severe Weather on mobile